sensor_id;sensor_type;location;lat;lon;timestamp;pressure;altitude;pressure_sealevel;temperature;humidity
788;BME280;16074;42.708;23.312;2023-01-29T00:02:28;138477.31;;;0.66;100.00
788;BME280;16074;42.708;23.312;2023-01-29T00:04:56;138484.44;;;0.69;100.00
788;BME280;16074;42.708;23.312;2023-01-29T00:07:42;138504.72;;;0.78;100.00
788;BME280;16074;42.708;23.312;2023-01-29T00:10:10;138470.16;;;0.63;100.00
788;BME280;16074;42.708;23.312;2023-01-29T00:12:39;138488.00;;;0.71;100.00
788;BME280;16074;42.708;23.312;2023-01-29T00:15:08;138467.75;;;0.62;100.00
788;BME280;16074;42.708;23.312;2023-01-29T00:17:37;138458.22;;;0.58;100.00
788;BME280;16074;42.708;23.312;2023-01-29T00:20:06;138455.84;;;0.57;100.00
788;BME280;16074;42.708;23.312;2023-01-29T00:22:34;138441.53;;;0.51;100.00
788;BME280;16074;42.708;23.312;2023-01-29T00:25:03;138466.53;;;0.62;100.00
788;BME280;16074;42.708;23.312;2023-01-29T00:27:32;138470.16;;;0.63;100.00
788;BME280;16074;42.708;23.312;2023-01-29T00:30:03;138457.00;;;0.58;100.00
788;BME280;16074;42.708;23.312;2023-01-29T00:32:40;138479.69;;;0.67;100.00
788;BME280;16074;42.708;23.312;2023-01-29T00:35:09;138480.84;;;0.68;100.00
788;BME280;16074;42.708;23.312;2023-01-29T00:37:38;138507.09;;;0.79;100.00
788;BME280;16074;42.708;23.312;2023-01-29T00:40:07;138504.72;;;0.78;100.00
788;BME280;16074;42.708;23.312;2023-01-29T00:42:36;138489.22;;;0.71;100.00
788;BME280;16074;42.708;23.312;2023-01-29T00:45:21;138457.00;;;0.58;100.00
788;BME280;16074;42.708;23.312;2023-01-29T00:47:51;138447.50;;;0.54;100.00
788;BME280;16074;42.708;23.312;2023-01-29T00:50:20;138454.63;;;0.57;100.00
788;BME280;16074;42.708;23.312;2023-01-29T00:52:48;138440.34;;;0.51;100.00
788;BME280;16074;42.708;23.312;2023-01-29T00:55:17;138457.00;;;0.58;100.00
788;BME280;16074;42.708;23.312;2023-01-29T00:57:46;138455.84;;;0.57;100.00
788;BME280;16074;42.708;23.312;2023-01-29T01:00:16;138442.72;;;0.52;100.00
788;BME280;16074;42.708;23.312;2023-01-29T01:02:45;138437.97;;;0.50;100.00
788;BME280;16074;42.708;23.312;2023-01-29T01:05:32;138434.38;;;0.48;100.00
788;BME280;16074;42.708;23.312;2023-01-29T01:08:03;138423.66;;;0.44;100.00
788;BME280;16074;42.708;23.312;2023-01-29T01:11:01;138398.59;;;0.33;100.00
788;BME280;16074;42.708;23.312;2023-01-29T01:13:30;138406.97;;;0.37;100.00
788;BME280;16074;42.708;23.312;2023-01-29T01:15:59;138411.72;;;0.39;100.00
788;BME280;16074;42.708;23.312;2023-01-29T01:18:28;138404.56;;;0.36;100.00
788;BME280;16074;42.708;23.312;2023-01-29T01:20:58;138396.22;;;0.32;100.00
788;BME280;16074;42.708;23.312;2023-01-29T01:23:27;138417.66;;;0.41;100.00
788;BME280;16074;42.708;23.312;2023-01-29T01:25:55;138389.06;;;0.29;100.00
788;BME280;16074;42.708;23.312;2023-01-29T01:28:24;138397.41;;;0.33;100.00
788;BME280;16074;42.708;23.312;2023-01-29T01:30:52;138416.50;;;0.41;100.00
788;BME280;16074;42.708;23.312;2023-01-29T01:33:20;138391.44;;;0.30;100.00
788;BME280;16074;42.708;23.312;2023-01-29T01:35:48;138402.19;;;0.35;100.00
788;BME280;16074;42.708;23.312;2023-01-29T01:38:18;138402.19;;;0.35;100.00
788;BME280;16074;42.708;23.312;2023-01-29T01:40:46;138397.41;;;0.33;100.00
788;BME280;16074;42.708;23.312;2023-01-29T01:43:14;138387.88;;;0.29;100.00
788;BME280;16074;42.708;23.312;2023-01-29T01:45:43;138418.88;;;0.42;100.00
788;BME280;16074;42.708;23.312;2023-01-29T01:48:16;138398.59;;;0.33;100.00
788;BME280;16074;42.708;23.312;2023-01-29T01:50:50;138389.06;;;0.29;100.00
788;BME280;16074;42.708;23.312;2023-01-29T01:53:25;138393.81;;;0.31;100.00
788;BME280;16074;42.708;23.312;2023-01-29T01:55:59;138403.34;;;0.35;100.00
788;BME280;16074;42.708;23.312;2023-01-29T01:58:32;138393.81;;;0.31;100.00
788;BME280;16074;42.708;23.312;2023-01-29T02:01:02;138387.88;;;0.29;100.00
788;BME280;16074;42.708;23.312;2023-01-29T02:03:34;138387.88;;;0.29;100.00
788;BME280;16074;42.708;23.312;2023-01-29T02:06:22;138385.50;;;0.28;100.00
788;BME280;16074;42.708;23.312;2023-01-29T02:09:12;138371.19;;;0.22;100.00
788;BME280;16074;42.708;23.312;2023-01-29T02:12:00;138399.81;;;0.34;100.00
788;BME280;16074;42.708;23.312;2023-01-29T02:14:28;138385.50;;;0.28;100.00
788;BME280;16074;42.708;23.312;2023-01-29T02:16:59;138395.03;;;0.32;100.00
788;BME280;16074;42.708;23.312;2023-01-29T02:19:37;138387.88;;;0.29;100.00
788;BME280;16074;42.708;23.312;2023-01-29T02:22:30;138380.72;;;0.26;100.00
788;BME280;16074;42.708;23.312;2023-01-29T02:25:26;138371.19;;;0.22;100.00
788;BME280;16074;42.708;23.312;2023-01-29T02:28:24;138371.19;;;0.22;100.00
788;BME280;16074;42.708;23.312;2023-01-29T02:31:01;138375.97;;;0.24;100.00
788;BME280;16074;42.708;23.312;2023-01-29T02:33:47;138396.22;;;0.32;100.00
788;BME280;16074;42.708;23.312;2023-01-29T02:36:24;138379.56;;;0.25;100.00
788;BME280;16074;42.708;23.312;2023-01-29T02:39:00;138371.19;;;0.22;100.00
788;BME280;16074;42.708;23.312;2023-01-29T02:41:36;138354.50;;;0.15;100.00
788;BME280;16074;42.708;23.312;2023-01-29T02:44:16;138354.50;;;0.15;100.00
788;BME280;16074;42.708;23.312;2023-01-29T02:46:51;138383.13;;;0.27;100.00
788;BME280;16074;42.708;23.312;2023-01-29T02:49:23;138356.88;;;0.16;100.00
788;BME280;16074;42.708;23.312;2023-01-29T02:51:58;138373.56;;;0.23;100.00
788;BME280;16074;42.708;23.312;2023-01-29T02:54:33;138361.66;;;0.18;100.00
788;BME280;16074;42.708;23.312;2023-01-29T02:57:10;138354.50;;;0.15;100.00
788;BME280;16074;42.708;23.312;2023-01-29T02:59:48;138350.94;;;0.13;100.00
788;BME280;16074;42.708;23.312;2023-01-29T03:02:22;138350.94;;;0.13;100.00
788;BME280;16074;42.708;23.312;2023-01-29T03:04:58;138347.34;;;0.12;100.00
788;BME280;16074;42.708;23.312;2023-01-29T03:07:31;138356.88;;;0.16;100.00
788;BME280;16074;42.708;23.312;2023-01-29T03:10:20;138355.72;;;0.15;100.00
788;BME280;16074;42.708;23.312;2023-01-29T03:12:52;138361.66;;;0.18;100.00
788;BME280;16074;42.708;23.312;2023-01-29T03:15:27;138360.50;;;0.17;100.00
788;BME280;16074;42.708;23.312;2023-01-29T03:18:22;138364.03;;;0.19;100.00
788;BME280;16074;42.708;23.312;2023-01-29T03:21:02;138370.03;;;0.21;100.00
788;BME280;16074;42.708;23.312;2023-01-29T03:23:53;138358.09;;;0.16;100.00
788;BME280;16074;42.708;23.312;2023-01-29T03:26:40;138350.94;;;0.13;100.00
788;BME280;16074;42.708;23.312;2023-01-29T03:29:34;138343.81;;;0.10;100.00
788;BME280;16074;42.708;23.312;2023-01-29T03:32:27;138354.50;;;0.15;100.00
788;BME280;16074;42.708;23.312;2023-01-29T03:34:59;138356.88;;;0.16;100.00
788;BME280;16074;42.708;23.312;2023-01-29T03:37:33;138342.59;;;0.10;100.00
788;BME280;16074;42.708;23.312;2023-01-29T03:40:06;138359.28;;;0.17;100.00
788;BME280;16074;42.708;23.312;2023-01-29T03:42:45;138371.19;;;0.22;100.00
788;BME280;16074;42.708;23.312;2023-01-29T03:45:20;138347.34;;;0.12;100.00
788;BME280;16074;42.708;23.312;2023-01-29T03:48:02;138352.13;;;0.14;100.00
788;BME280;16074;42.708;23.312;2023-01-29T03:50:37;138341.41;;;0.09;100.00
788;BME280;16074;42.708;23.312;2023-01-29T03:53:16;138366.44;;;0.20;100.00
788;BME280;16074;42.708;23.312;2023-01-29T03:55:53;138352.13;;;0.14;100.00
788;BME280;16074;42.708;23.312;2023-01-29T03:58:31;138340.19;;;0.09;100.00
788;BME280;16074;42.708;23.312;2023-01-29T04:01:03;138331.88;;;0.05;100.00
788;BME280;16074;42.708;23.312;2023-01-29T04:03:38;138337.81;;;0.08;100.00
788;BME280;16074;42.708;23.312;2023-01-29T04:06:12;138315.19;;;-0.02;100.00
788;BME280;16074;42.708;23.312;2023-01-29T04:08:54;138335.44;;;0.07;100.00
788;BME280;16074;42.708;23.312;2023-01-29T04:11:26;138359.28;;;0.17;100.00
788;BME280;16074;42.708;23.312;2023-01-29T04:13:56;138329.50;;;0.04;100.00
788;BME280;16074;42.708;23.312;2023-01-29T04:16:27;138337.81;;;0.08;100.00
788;BME280;16074;42.708;23.312;2023-01-29T04:19:17;138335.44;;;0.07;100.00
788;BME280;16074;42.708;23.312;2023-01-29T04:21:49;138329.50;;;0.04;100.00
788;BME280;16074;42.708;23.312;2023-01-29T04:24:18;138327.09;;;0.03;100.00
788;BME280;16074;42.708;23.312;2023-01-29T04:26:56;138321.13;;;0.01;100.00
788;BME280;16074;42.708;23.312;2023-01-29T04:29:34;138321.13;;;0.01;100.00
788;BME280;16074;42.708;23.312;2023-01-29T04:32:14;138318.78;;;0.00;100.00
788;BME280;16074;42.708;23.312;2023-01-29T04:34:59;138324.72;;;0.02;100.00
788;BME280;16074;42.708;23.312;2023-01-29T04:37:35;138330.66;;;0.05;100.00
788;BME280;16074;42.708;23.312;2023-01-29T04:40:14;138310.44;;;-0.03;100.00
788;BME280;16074;42.708;23.312;2023-01-29T04:42:49;138306.88;;;-0.05;100.00
788;BME280;16074;42.708;23.312;2023-01-29T04:45:27;138296.13;;;-0.09;100.00
788;BME280;16074;42.708;23.312;2023-01-29T04:48:05;138311.63;;;-0.03;100.00
788;BME280;16074;42.708;23.312;2023-01-29T04:50:41;138318.78;;;0.00;100.00
788;BME280;16074;42.708;23.312;2023-01-29T04:53:16;138315.19;;;-0.02;100.00
788;BME280;16074;42.708;23.312;2023-01-29T04:55:50;138315.19;;;-0.02;100.00
788;BME280;16074;42.708;23.312;2023-01-29T04:58:25;138299.72;;;-0.08;100.00
788;BME280;16074;42.708;23.312;2023-01-29T05:00:53;138318.78;;;0.00;100.00
788;BME280;16074;42.708;23.312;2023-01-29T05:03:25;138328.28;;;0.04;100.00
788;BME280;16074;42.708;23.312;2023-01-29T05:05:56;138324.72;;;0.02;100.00
788;BME280;16074;42.708;23.312;2023-01-29T05:08:27;138336.66;;;0.07;100.00
788;BME280;16074;42.708;23.312;2023-01-29T05:10:58;138341.41;;;0.09;100.00
788;BME280;16074;42.708;23.312;2023-01-29T05:13:28;138334.25;;;0.06;100.00
788;BME280;16074;42.708;23.312;2023-01-29T05:16:01;138347.34;;;0.12;100.00
788;BME280;16074;42.708;23.312;2023-01-29T05:18:32;138355.72;;;0.15;100.00
788;BME280;16074;42.708;23.312;2023-01-29T05:21:05;138329.50;;;0.04;100.00
788;BME280;16074;42.708;23.312;2023-01-29T05:23:34;138335.44;;;0.07;100.00
788;BME280;16074;42.708;23.312;2023-01-29T05:26:03;138330.66;;;0.05;100.00
788;BME280;16074;42.708;23.312;2023-01-29T05:28:32;138337.81;;;0.08;100.00
788;BME280;16074;42.708;23.312;2023-01-29T05:30:59;138323.50;;;0.02;100.00
788;BME280;16074;42.708;23.312;2023-01-29T05:33:28;138339.03;;;0.08;100.00
788;BME280;16074;42.708;23.312;2023-01-29T05:35:58;138350.94;;;0.13;100.00
788;BME280;16074;42.708;23.312;2023-01-29T05:38:27;138337.81;;;0.08;100.00
788;BME280;16074;42.708;23.312;2023-01-29T05:40:57;138337.81;;;0.08;100.00
788;BME280;16074;42.708;23.312;2023-01-29T05:43:25;138365.25;;;0.19;100.00
788;BME280;16074;42.708;23.312;2023-01-29T05:45:54;138356.88;;;0.16;100.00
788;BME280;16074;42.708;23.312;2023-01-29T05:48:23;138365.25;;;0.19;100.00
788;BME280;16074;42.708;23.312;2023-01-29T05:50:53;138355.72;;;0.15;100.00
788;BME280;16074;42.708;23.312;2023-01-29T05:53:29;138364.03;;;0.19;100.00
788;BME280;16074;42.708;23.312;2023-01-29T05:55:59;138380.72;;;0.26;100.00
788;BME280;16074;42.708;23.312;2023-01-29T05:58:29;138391.44;;;0.30;100.00
788;BME280;16074;42.708;23.312;2023-01-29T06:00:59;138373.56;;;0.23;100.00
788;BME280;16074;42.708;23.312;2023-01-29T06:03:34;138355.72;;;0.15;100.00
788;BME280;16074;42.708;23.312;2023-01-29T06:06:03;138392.66;;;0.31;100.00
788;BME280;16074;42.708;23.312;2023-01-29T06:08:32;138389.06;;;0.29;100.00
788;BME280;16074;42.708;23.312;2023-01-29T06:11:00;138386.66;;;0.28;100.00
788;BME280;16074;42.708;23.312;2023-01-29T06:13:29;138380.72;;;0.26;100.00
788;BME280;16074;42.708;23.312;2023-01-29T06:15:57;138389.06;;;0.29;100.00
788;BME280;16074;42.708;23.312;2023-01-29T06:18:26;138408.13;;;0.37;100.00
788;BME280;16074;42.708;23.312;2023-01-29T06:20:54;138398.59;;;0.33;100.00
788;BME280;16074;42.708;23.312;2023-01-29T06:23:22;138405.75;;;0.36;100.00
788;BME280;16074;42.708;23.312;2023-01-29T06:25:52;138410.53;;;0.38;100.00
788;BME280;16074;42.708;23.312;2023-01-29T06:28:20;138380.72;;;0.26;100.00
788;BME280;16074;42.708;23.312;2023-01-29T06:30:48;138417.66;;;0.41;100.00
788;BME280;16074;42.708;23.312;2023-01-29T06:33:17;138423.66;;;0.44;100.00
788;BME280;16074;42.708;23.312;2023-01-29T06:35:45;138448.69;;;0.54;100.00
788;BME280;16074;42.708;23.312;2023-01-29T06:38:13;138442.72;;;0.52;100.00
788;BME280;16074;42.708;23.312;2023-01-29T06:40:41;138466.53;;;0.62;100.00
788;BME280;16074;42.708;23.312;2023-01-29T06:43:11;138476.09;;;0.66;100.00
788;BME280;16074;42.708;23.312;2023-01-29T06:45:46;138470.16;;;0.63;100.00
788;BME280;16074;42.708;23.312;2023-01-29T06:48:14;138436.75;;;0.49;100.00
788;BME280;16074;42.708;23.312;2023-01-29T06:50:42;138433.19;;;0.48;100.00
788;BME280;16074;42.708;23.312;2023-01-29T06:53:10;138464.16;;;0.61;100.00
788;BME280;16074;42.708;23.312;2023-01-29T06:55:39;138479.69;;;0.67;100.00
788;BME280;16074;42.708;23.312;2023-01-29T06:58:10;138508.31;;;0.79;100.00
788;BME280;16074;42.708;23.312;2023-01-29T07:00:40;138519.03;;;0.84;100.00
788;BME280;16074;42.708;23.312;2023-01-29T07:03:09;138458.22;;;0.58;100.00
788;BME280;16074;42.708;23.312;2023-01-29T07:05:37;138434.38;;;0.48;100.00
788;BME280;16074;42.708;23.312;2023-01-29T07:08:06;138467.75;;;0.62;100.00
788;BME280;16074;42.708;23.312;2023-01-29T07:10:35;138491.63;;;0.72;100.00
788;BME280;16074;42.708;23.312;2023-01-29T07:13:03;138499.94;;;0.76;100.00
788;BME280;16074;42.708;23.312;2023-01-29T07:15:31;138517.84;;;0.83;100.00
788;BME280;16074;42.708;23.312;2023-01-29T07:18:04;138521.41;;;0.85;100.00
788;BME280;16074;42.708;23.312;2023-01-29T07:20:38;138532.13;;;0.89;100.00
788;BME280;16074;42.708;23.312;2023-01-29T07:23:10;138472.53;;;0.64;100.00
788;BME280;16074;42.708;23.312;2023-01-29T07:25:38;138477.31;;;0.66;100.00
788;BME280;16074;42.708;23.312;2023-01-29T07:28:07;138495.16;;;0.74;100.00
788;BME280;16074;42.708;23.312;2023-01-29T07:30:35;138480.84;;;0.68;100.00
788;BME280;16074;42.708;23.312;2023-01-29T07:33:06;138466.53;;;0.62;100.00
788;BME280;16074;42.708;23.312;2023-01-29T07:35:35;138466.53;;;0.62;100.00
788;BME280;16074;42.708;23.312;2023-01-29T07:38:04;138508.31;;;0.79;100.00
788;BME280;16074;42.708;23.312;2023-01-29T07:40:32;138492.78;;;0.73;100.00
788;BME280;16074;42.708;23.312;2023-01-29T07:43:02;138505.94;;;0.78;100.00
788;BME280;16074;42.708;23.312;2023-01-29T07:45:33;138505.94;;;0.78;100.00
788;BME280;16074;42.708;23.312;2023-01-29T07:48:03;138524.97;;;0.86;100.00
788;BME280;16074;42.708;23.312;2023-01-29T07:50:34;138527.34;;;0.87;100.00
788;BME280;16074;42.708;23.312;2023-01-29T07:53:02;138547.66;;;0.96;100.00
788;BME280;16074;42.708;23.312;2023-01-29T07:55:32;138492.78;;;0.73;100.00
788;BME280;16074;42.708;23.312;2023-01-29T07:58:01;138489.22;;;0.71;100.00
788;BME280;16074;42.708;23.312;2023-01-29T08:00:30;138478.47;;;0.67;100.00
788;BME280;16074;42.708;23.312;2023-01-29T08:03:03;138480.84;;;0.68;100.00
788;BME280;16074;42.708;23.312;2023-01-29T08:05:33;138494.00;;;0.73;100.00
788;BME280;16074;42.708;23.312;2023-01-29T08:08:01;138521.41;;;0.85;100.00
788;BME280;16074;42.708;23.312;2023-01-29T08:10:33;138491.63;;;0.72;100.00
788;BME280;16074;42.708;23.312;2023-01-29T08:13:02;138528.56;;;0.88;100.00
788;BME280;16074;42.708;23.312;2023-01-29T08:15:32;138540.50;;;0.93;100.00
788;BME280;16074;42.708;23.312;2023-01-29T08:18:03;138534.50;;;0.90;100.00
788;BME280;16074;42.708;23.312;2023-01-29T08:20:33;138514.25;;;0.82;100.00
788;BME280;16074;42.708;23.312;2023-01-29T08:23:03;138507.09;;;0.79;100.00
788;BME280;16074;42.708;23.312;2023-01-29T08:25:32;138544.06;;;0.94;100.00
788;BME280;16074;42.708;23.312;2023-01-29T08:28:00;138534.50;;;0.90;100.00
788;BME280;16074;42.708;23.312;2023-01-29T08:30:31;138555.97;;;0.99;100.00
788;BME280;16074;42.708;23.312;2023-01-29T08:33:00;138510.69;;;0.80;100.00
788;BME280;16074;42.708;23.312;2023-01-29T08:35:29;138532.13;;;0.89;100.00
788;BME280;16074;42.708;23.312;2023-01-29T08:38:00;138535.72;;;0.91;100.00
788;BME280;16074;42.708;23.312;2023-01-29T08:40:31;138535.72;;;0.91;100.00
788;BME280;16074;42.708;23.312;2023-01-29T08:43:00;138535.72;;;0.91;100.00
788;BME280;16074;42.708;23.312;2023-01-29T08:45:32;138509.47;;;0.80;100.00
788;BME280;16074;42.708;23.312;2023-01-29T08:48:01;138548.81;;;0.96;100.00
788;BME280;16074;42.708;23.312;2023-01-29T08:50:30;138558.38;;;1.00;100.00
788;BME280;16074;42.708;23.312;2023-01-29T08:53:03;138559.59;;;1.01;100.00
788;BME280;16074;42.708;23.312;2023-01-29T08:55:34;138536.91;;;0.91;100.00
788;BME280;16074;42.708;23.312;2023-01-29T08:58:04;138564.38;;;1.03;100.00
788;BME280;16074;42.708;23.312;2023-01-29T09:00:33;138557.19;;;1.00;100.00
788;BME280;16074;42.708;23.312;2023-01-29T09:03:02;138521.41;;;0.85;100.00
788;BME280;16074;42.708;23.312;2023-01-29T09:05:30;138521.41;;;0.85;100.00
788;BME280;16074;42.708;23.312;2023-01-29T09:07:58;138560.75;;;1.01;100.00
788;BME280;16074;42.708;23.312;2023-01-29T09:10:28;138561.97;;;1.02;100.00
788;BME280;16074;42.708;23.312;2023-01-29T09:12:56;138567.91;;;1.04;100.00
788;BME280;16074;42.708;23.312;2023-01-29T09:15:24;138571.53;;;1.06;100.00
788;BME280;16074;42.708;23.312;2023-01-29T09:17:53;138594.16;;;1.15;100.00
788;BME280;16074;42.708;23.312;2023-01-29T09:20:21;138571.53;;;1.06;100.00
788;BME280;16074;42.708;23.312;2023-01-29T09:22:49;138579.84;;;1.09;100.00
788;BME280;16074;42.708;23.312;2023-01-29T09:25:19;138589.41;;;1.13;100.00
788;BME280;16074;42.708;23.312;2023-01-29T09:27:49;138594.16;;;1.15;100.00
788;BME280;16074;42.708;23.312;2023-01-29T09:30:17;138622.81;;;1.27;100.00
788;BME280;16074;42.708;23.312;2023-01-29T09:32:46;138638.31;;;1.33;100.00
788;BME280;16074;42.708;23.312;2023-01-29T09:35:22;138665.72;;;1.45;100.00
788;BME280;16074;42.708;23.312;2023-01-29T09:37:51;138650.25;;;1.38;100.00
788;BME280;16074;42.708;23.312;2023-01-29T09:40:24;138646.69;;;1.37;100.00
788;BME280;16074;42.708;23.312;2023-01-29T09:43:00;138676.50;;;1.49;100.00
788;BME280;16074;42.708;23.312;2023-01-29T09:45:29;138672.91;;;1.48;100.00
788;BME280;16074;42.708;23.312;2023-01-29T09:47:59;138607.28;;;1.20;100.00
788;BME280;16074;42.708;23.312;2023-01-29T09:50:31;138613.25;;;1.23;100.00
788;BME280;16074;42.708;23.312;2023-01-29T09:53:05;138619.22;;;1.25;100.00
788;BME280;16074;42.708;23.312;2023-01-29T09:55:42;138582.25;;;1.10;100.00
788;BME280;16074;42.708;23.312;2023-01-29T09:58:18;138559.59;;;1.01;100.00
788;BME280;16074;42.708;23.312;2023-01-29T10:00:55;138554.81;;;0.99;100.00
788;BME280;16074;42.708;23.312;2023-01-29T10:03:40;138546.44;;;0.95;100.00
788;BME280;16074;42.708;23.312;2023-01-29T10:06:20;138567.91;;;1.04;100.00
788;BME280;16074;42.708;23.312;2023-01-29T10:09:12;138533.34;;;0.90;100.00
788;BME280;16074;42.708;23.312;2023-01-29T10:11:48;138551.22;;;0.97;100.00
788;BME280;16074;42.708;23.312;2023-01-29T10:14:30;138534.50;;;0.90;100.00
788;BME280;16074;42.708;23.312;2023-01-29T10:17:15;138515.47;;;0.82;100.00
788;BME280;16074;42.708;23.312;2023-01-29T10:20:12;138545.28;;;0.95;100.00
788;BME280;16074;42.708;23.312;2023-01-29T10:22:59;138524.97;;;0.86;100.00
788;BME280;16074;42.708;23.312;2023-01-29T10:25:31;138536.91;;;0.91;100.00
788;BME280;16074;42.708;23.312;2023-01-29T10:28:02;138539.28;;;0.92;100.00
788;BME280;16074;42.708;23.312;2023-01-29T10:30:36;138546.44;;;0.95;100.00
788;BME280;16074;42.708;23.312;2023-01-29T10:33:11;138536.91;;;0.91;100.00
788;BME280;16074;42.708;23.312;2023-01-29T10:35:42;138573.91;;;1.07;100.00
788;BME280;16074;42.708;23.312;2023-01-29T10:38:17;138557.19;;;1.00;100.00
788;BME280;16074;42.708;23.312;2023-01-29T10:40:55;138554.81;;;0.99;100.00
788;BME280;16074;42.708;23.312;2023-01-29T10:43:32;138539.28;;;0.92;100.00
788;BME280;16074;42.708;23.312;2023-01-29T10:46:14;138553.59;;;0.98;100.00
788;BME280;16074;42.708;23.312;2023-01-29T10:48:56;138536.91;;;0.91;100.00
788;BME280;16074;42.708;23.312;2023-01-29T10:51:51;138533.34;;;0.90;100.00
788;BME280;16074;42.708;23.312;2023-01-29T10:54:41;138536.91;;;0.91;100.00
788;BME280;16074;42.708;23.312;2023-01-29T10:57:17;138551.22;;;0.97;100.00
788;BME280;16074;42.708;23.312;2023-01-29T10:59:58;138571.53;;;1.06;100.00
788;BME280;16074;42.708;23.312;2023-01-29T11:02:32;138601.34;;;1.18;100.00
788;BME280;16074;42.708;23.312;2023-01-29T11:05:01;138590.56;;;1.13;100.00
788;BME280;16074;42.708;23.312;2023-01-29T11:07:29;138558.38;;;1.00;100.00
788;BME280;16074;42.708;23.312;2023-01-29T11:10:03;138536.91;;;0.91;100.00
788;BME280;16074;42.708;23.312;2023-01-29T11:12:36;138538.13;;;0.92;100.00
788;BME280;16074;42.708;23.312;2023-01-29T11:15:14;138530.97;;;0.89;100.00
788;BME280;16074;42.708;23.312;2023-01-29T11:18:03;138529.75;;;0.88;100.00
788;BME280;16074;42.708;23.312;2023-01-29T11:20:33;138545.28;;;0.95;100.00
788;BME280;16074;42.708;23.312;2023-01-29T11:23:01;138569.13;;;1.05;100.00
788;BME280;16074;42.708;23.312;2023-01-29T11:25:31;138583.47;;;1.11;100.00
788;BME280;16074;42.708;23.312;2023-01-29T11:28:01;138578.69;;;1.09;100.00
788;BME280;16074;42.708;23.312;2023-01-29T11:30:33;138602.50;;;1.18;100.00
788;BME280;16074;42.708;23.312;2023-01-29T11:33:11;138575.06;;;1.07;100.00
788;BME280;16074;42.708;23.312;2023-01-29T11:35:40;138569.13;;;1.05;100.00
788;BME280;16074;42.708;23.312;2023-01-29T11:38:17;138587.00;;;1.12;100.00
788;BME280;16074;42.708;23.312;2023-01-29T11:40:46;138601.34;;;1.18;100.00
788;BME280;16074;42.708;23.312;2023-01-29T11:43:20;138625.19;;;1.28;100.00
788;BME280;16074;42.708;23.312;2023-01-29T11:45:50;138634.75;;;1.32;100.00
788;BME280;16074;42.708;23.312;2023-01-29T11:48:24;138613.25;;;1.23;100.00
788;BME280;16074;42.708;23.312;2023-01-29T11:50:57;138643.09;;;1.35;100.00
788;BME280;16074;42.708;23.312;2023-01-29T11:53:35;138632.34;;;1.31;100.00
788;BME280;16074;42.708;23.312;2023-01-29T11:56:15;138632.34;;;1.31;100.00
788;BME280;16074;42.708;23.312;2023-01-29T11:58:44;138650.25;;;1.38;100.00
788;BME280;16074;42.708;23.312;2023-01-29T12:01:16;138662.19;;;1.43;100.00
788;BME280;16074;42.708;23.312;2023-01-29T12:03:48;138678.88;;;1.50;100.00
788;BME280;16074;42.708;23.312;2023-01-29T12:06:22;138683.66;;;1.52;100.00
788;BME280;16074;42.708;23.312;2023-01-29T12:08:55;138664.56;;;1.44;100.00
788;BME280;16074;42.708;23.312;2023-01-29T12:11:27;138700.38;;;1.59;100.00
788;BME280;16074;42.708;23.312;2023-01-29T12:13:57;138717.09;;;1.66;100.00
788;BME280;16074;42.708;23.312;2023-01-29T12:16:30;138738.53;;;1.75;100.00
788;BME280;16074;42.708;23.312;2023-01-29T12:19:08;138763.63;;;1.86;100.00
788;BME280;16074;42.708;23.312;2023-01-29T12:21:45;138746.91;;;1.79;100.00
788;BME280;16074;42.708;23.312;2023-01-29T12:24:24;138768.41;;;1.88;100.00
788;BME280;16074;42.708;23.312;2023-01-29T12:27:01;138749.31;;;1.80;100.00
788;BME280;16074;42.708;23.312;2023-01-29T12:29:39;138733.75;;;1.73;100.00
788;BME280;16074;42.708;23.312;2023-01-29T12:32:18;138740.94;;;1.76;100.00
788;BME280;16074;42.708;23.312;2023-01-29T12:34:54;138743.31;;;1.77;100.00
788;BME280;16074;42.708;23.312;2023-01-29T12:37:29;138738.53;;;1.75;100.00
788;BME280;16074;42.708;23.312;2023-01-29T12:40:10;138731.38;;;1.72;100.00
788;BME280;16074;42.708;23.312;2023-01-29T12:42:40;138709.94;;;1.63;100.00
788;BME280;16074;42.708;23.312;2023-01-29T12:45:15;138746.91;;;1.79;100.00
788;BME280;16074;42.708;23.312;2023-01-29T12:47:48;138745.69;;;1.78;100.00
788;BME280;16074;42.708;23.312;2023-01-29T12:50:20;138754.09;;;1.82;100.00
788;BME280;16074;42.708;23.312;2023-01-29T12:52:52;138743.31;;;1.77;100.00
788;BME280;16074;42.708;23.312;2023-01-29T12:55:25;138758.84;;;1.84;100.00
788;BME280;16074;42.708;23.312;2023-01-29T12:57:56;138768.41;;;1.88;100.00
788;BME280;16074;42.708;23.312;2023-01-29T13:00:28;138773.19;;;1.90;100.00
788;BME280;16074;42.708;23.312;2023-01-29T13:03:00;138788.69;;;1.96;100.00
788;BME280;16074;42.708;23.312;2023-01-29T13:05:36;138770.81;;;1.89;100.00
788;BME280;16074;42.708;23.312;2023-01-29T13:08:09;138768.41;;;1.88;100.00
788;BME280;16074;42.708;23.312;2023-01-29T13:10:43;138740.94;;;1.76;100.00
788;BME280;16074;42.708;23.312;2023-01-29T13:13:17;138719.47;;;1.67;100.00
788;BME280;16074;42.708;23.312;2023-01-29T13:15:49;138721.88;;;1.68;100.00
788;BME280;16074;42.708;23.312;2023-01-29T13:18:36;138725.44;;;1.70;100.00
788;BME280;16074;42.708;23.312;2023-01-29T13:21:13;138707.53;;;1.62;100.00
788;BME280;16074;42.708;23.312;2023-01-29T13:23:44;138712.31;;;1.64;100.00
788;BME280;16074;42.708;23.312;2023-01-29T13:26:16;138692.00;;;1.56;100.00
788;BME280;16074;42.708;23.312;2023-01-29T13:28:46;138695.59;;;1.57;100.00
788;BME280;16074;42.708;23.312;2023-01-29T13:31:24;138690.81;;;1.55;100.00
788;BME280;16074;42.708;23.312;2023-01-29T13:34:00;138713.50;;;1.65;100.00